Cape Cod — WBK3243 — position and weather

sailwx.info

Track history (hours):
 
Tides and Currents Weather Stations Pressure Air Temp Water Temp Dewpoint Dewpoint Depression Visibility Wind Speed Wind Dir Waves Ship Positions

Cape Cod

Owner: MORAN TOWING CORPORATION, New Canaan, CT. More information available from US FCC via Universal Licensing System and Coast Guard Vessel Documentation Center.

Last reported at 2017-Apr-30 20:30 UTC. Time now 2017-Apr-30 20:41 UTC.
Position N 39°53' W 075°11'.

Length 33 m; draft 4.8 m.

Type: Tug. MMSI: 366939770.

Date/timePositionNaut miles runAvg speedWind from/ knotsBaromVisibWave heightAir tempDewpointWater temp
2017-Apr-30 20:30N 39°53' W 075°11'0 0.0
2017-Apr-30 20:00N 39°53' W 075°11'0 0.0
2017-Apr-30 19:30N 39°53' W 075°11'1 1.3
2017-Apr-30 19:00N 39°53' W 075°10'0 0.6
2017-Apr-30 18:30N 39°53' W 075°09'0 0.1
2017-Apr-30 18:00N 39°53' W 075°10'1 1.8
2017-Apr-30 17:30N 39°53' W 075°11'0 0.0
2017-Apr-30 17:00N 39°53' W 075°11'0 0.0
2017-Apr-30 16:30N 39°53' W 075°11'0 0.0
2017-Apr-30 16:00N 39°53' W 075°11'0 0.0
2017-Apr-30 15:30N 39°53' W 075°11'0 0.0
2017-Apr-30 15:00N 39°53' W 075°11'0 0.0
2017-Apr-30 14:30N 39°53' W 075°11'0 0.0
2017-Apr-30 13:30N 39°53' W 075°11'0 0.0
2017-Apr-30 13:00N 39°53' W 075°11'0 0.0
2017-Apr-30 12:30N 39°53' W 075°11'0 0.0
2017-Apr-30 12:00N 39°53' W 075°11'0 0.0
2017-Apr-30 11:30N 39°53' W 075°11'0 0.0
2017-Apr-30 11:00N 39°53' W 075°11'0 0.0
2017-Apr-30 10:30N 39°53' W 075°11'0 0.0
2017-Apr-30 10:00N 39°53' W 075°11'0 0.0
2017-Apr-30 09:30N 39°53' W 075°11'0 0.0
2017-Apr-30 09:00N 39°53' W 075°11'0 0.0
2017-Apr-30 08:30N 39°53' W 075°11'0 0.0
2017-Apr-30 08:00N 39°53' W 075°11'0 0.0
2017-Apr-30 07:30N 39°53' W 075°11'0 0.0
2017-Apr-30 07:00N 39°53' W 075°11'0 0.0
2017-Apr-30 06:30N 39°53' W 075°11'0 0.0
2017-Apr-30 06:00N 39°53' W 075°11'4 8.7
2017-Apr-30 05:30N 39°51' W 075°16'0 0.8
2017-Apr-30 05:00N 39°51' W 075°16'1 2.2
2017-Apr-30 04:30N 39°51' W 075°17'2 4.8
2017-Apr-30 04:00N 39°51' W 075°20'0 0.3
2017-Apr-30 03:30N 39°51' W 075°21'4 8.9
2017-Apr-30 03:00N 39°48' W 075°25'5 9.5
2017-Apr-30 02:30N 39°45' W 075°30'5 9.9
2017-Apr-30 02:00N 39°40' W 075°32'5 9.3
2017-Apr-30 01:30N 39°36' W 075°34'2 3.4
2017-Apr-30 01:00N 39°34' W 075°34'1 3.0
2017-Apr-30 00:30N 39°35' W 075°35'0 0.3
2017-Apr-30 00:00N 39°35' W 075°36'0 0.0
2017-Apr-29 23:30N 39°35' W 075°36'0 0.0
2017-Apr-29 23:00N 39°35' W 075°36'0 0.0
2017-Apr-29 22:30N 39°35' W 075°36'0 0.0
2017-Apr-29 22:00N 39°35' W 075°36'0 0.0
2017-Apr-29 21:30N 39°35' W 075°36'0 0.0
2017-Apr-29 21:00N 39°35' W 075°36'0 0.0
2017-Apr-29 20:30N 39°35' W 075°36'0 0.0
2017-Apr-29 20:00N 39°35' W 075°36'0 0.0
2017-Apr-29 19:30N 39°35' W 075°36'0 0.0
2017-Apr-29 19:00N 39°35' W 075°36'0 0.0
2017-Apr-29 18:30N 39°35' W 075°36'0 0.0
2017-Apr-29 18:00N 39°35' W 075°36'0 0.0
2017-Apr-29 17:30N 39°35' W 075°36'0 0.0
2017-Apr-29 17:00N 39°35' W 075°36'0 0.0
2017-Apr-29 16:30N 39°35' W 075°36'0 0.0
2017-Apr-29 16:00N 39°35' W 075°36'2 4.2
2017-Apr-29 15:30N 39°34' W 075°33'713.2
2017-Apr-29 15:00N 39°27' W 075°33'1413.8
2017-Apr-29 14:00N 39°17' W 075°22'9 2.9
2017-Apr-29 10:51N 39°09' W 075°15'410.8
2017-Apr-29 10:30N 39°13' W 075°17'611.5
2017-Apr-29 10:00N 39°17' W 075°22'611.8
2017-Apr-29 09:30N 39°22' W 075°27'510.9
2017-Apr-29 09:00N 39°26' W 075°32'5 9.9
2017-Apr-29 08:30N 39°31' W 075°33'5 9.8
2017-Apr-29 08:00N 39°35' W 075°34'4 7.7
2017-Apr-29 07:30N 39°39' W 075°33'4 7.9
2017-Apr-29 07:00N 39°43' W 075°31'5 7.6
2017-Apr-29 06:20N 39°47' W 075°27'3 7.4
2017-Apr-29 05:58N 39°49' W 075°24'5 7.0
2017-Apr-29 05:19N 39°51' W 075°19'3 7.6
2017-Apr-29 05:00N 39°51' W 075°16'4 7.4
2017-Apr-29 04:30N 39°53' W 075°12'3 6.9
2017-Apr-29 04:00N 39°54' W 075°08'4 7.9
2017-Apr-29 03:30N 39°58' W 075°07'0 0.5
2017-Apr-29 03:00N 39°58' W 075°07'0 0.8
2017-Apr-29 02:30N 39°58' W 075°07'3 6.2
2017-Apr-29 02:00N 39°55' W 075°08'3 5.7
2017-Apr-29 01:30N 39°53' W 075°11'0 0.2
2017-Apr-29 01:00N 39°53' W 075°11'0 0.0
2017-Apr-29 00:30N 39°53' W 075°11'0 0.0
2017-Apr-29 00:00N 39°53' W 075°11'0 0.0
2017-Apr-28 23:30N 39°53' W 075°11'0 0.0
2017-Apr-28 23:00N 39°53' W 075°11'0 0.0
2017-Apr-28 22:30N 39°53' W 075°11'0 0.0
2017-Apr-28 22:00N 39°53' W 075°11'0 0.0
2017-Apr-28 21:30N 39°53' W 075°11'0 0.0
2017-Apr-28 21:00N 39°53' W 075°11'0 0.0
2017-Apr-28 20:30N 39°53' W 075°11'0 0.0
2017-Apr-28 20:00N 39°53' W 075°11'0 0.0
2017-Apr-28 19:30N 39°53' W 075°11'0 0.0
2017-Apr-28 19:00N 39°53' W 075°11'0 0.0
2017-Apr-28 18:30N 39°53' W 075°11'0 0.0
2017-Apr-28 18:00N 39°53' W 075°11'0 0.0
2017-Apr-28 17:30N 39°53' W 075°11'0 0.0
2017-Apr-28 17:00N 39°53' W 075°11'0 0.0
2017-Apr-28 16:30N 39°53' W 075°11'0 0.0
2017-Apr-28 16:00N 39°53' W 075°11'0 0.0
2017-Apr-28 15:30N 39°53' W 075°11'0 0.0
2017-Apr-28 15:00N 39°53' W 075°11'0 0.0
2017-Apr-28 14:00N 39°53' W 075°11'2 4.2
2017-Apr-28 13:30N 39°52' W 075°13'0 0.3
2017-Apr-28 12:59N 39°52' W 075°13'0 0.1
2017-Apr-28 12:30N 39°52' W 075°13'0 0.2
2017-Apr-28 12:00N 39°52' W 075°13'0 0.6
2017-Apr-28 11:30N 39°52' W 075°13'2 3.9
2017-Apr-28 11:00N 39°53' W 075°11'0 0.0
2017-Apr-28 10:30N 39°53' W 075°11'0 0.0
2017-Apr-28 10:00N 39°53' W 075°11'0 0.0
2017-Apr-28 09:30N 39°53' W 075°11'0 0.0
2017-Apr-28 09:00N 39°53' W 075°11'0 0.0
2017-Apr-28 08:30N 39°53' W 075°11'0 0.0
2017-Apr-28 08:00N 39°53' W 075°11'0 0.0
2017-Apr-28 07:30N 39°53' W 075°11'0 0.0
2017-Apr-28 07:00N 39°53' W 075°11'0 0.0
2017-Apr-28 06:30N 39°53' W 075°11'0 0.0
2017-Apr-28 06:00N 39°53' W 075°11'2 4.1
2017-Apr-28 05:30N 39°54' W 075°08'4 7.8
2017-Apr-28 05:00N 39°58' W 075°08'1 1.8
2017-Apr-28 04:30N 39°58' W 075°07'0 0.3
2017-Apr-28 04:00N 39°58' W 075°07'1 2.0
2017-Apr-28 03:30N 39°58' W 075°08'4 8.1
2017-Apr-28 02:59N 39°53' W 075°08'5 9.3
2017-Apr-28 02:29N 39°52' W 075°14'4 9.3
2017-Apr-28 02:00N 39°51' W 075°19'4 8.8
2017-Apr-28 01:30N 39°49' W 075°24'4 8.8
2017-Apr-28 01:00N 39°46' W 075°29'4 8.5
2017-Apr-28 00:30N 39°42' W 075°31'4 8.2
2017-Apr-28 00:00N 39°38' W 075°34'4 7.5
2017-Apr-27 23:30N 39°35' W 075°33'4 7.6
2017-Apr-27 23:00N 39°31' W 075°33'4 7.8
2017-Apr-27 22:30N 39°27' W 075°33'4 7.9
2017-Apr-27 22:00N 39°24' W 075°30'4 7.5
2017-Apr-27 21:26N 39°21' W 075°26'9 1.6
2017-Apr-27 15:54N 39°14' W 075°19'511.8
2017-Apr-27 15:30N 39°18' W 075°23'510.9
2017-Apr-27 15:00N 39°22' W 075°27'1010.3
2017-Apr-27 14:00N 39°31' W 075°33'611.3
2017-Apr-27 13:30N 39°37' W 075°35'612.8
2017-Apr-27 13:01N 39°42' W 075°31'1214.3
2017-Apr-27 12:09N 39°51' W 075°19'320.3
2017-Apr-27 12:01N 39°51' W 075°16'4 8.9
2017-Apr-27 11:30N 39°53' W 075°11'0 0.0
2017-Apr-27 11:00N 39°53' W 075°11'0 0.0
2017-Apr-27 10:26N 39°53' W 075°11'0 0.0
2017-Apr-27 09:52N 39°53' W 075°11'0 0.0
2017-Apr-27 09:26N 39°53' W 075°11'0 0.0
2017-Apr-27 08:56N 39°53' W 075°11'0 0.0
2017-Apr-27 08:26N 39°53' W 075°11'0 0.0
2017-Apr-27 07:58N 39°53' W 075°11'0 0.0
2017-Apr-27 07:27N 39°53' W 075°11'0 0.0
2017-Apr-27 06:56N 39°53' W 075°11'0 0.0
2017-Apr-27 06:22N 39°53' W 075°11'0 0.0
2017-Apr-27 06:00N 39°53' W 075°11'0 0.0
2017-Apr-27 05:30N 39°53' W 075°11'0 0.0
2017-Apr-27 05:00N 39°53' W 075°11'0 0.0
2017-Apr-27 04:30N 39°53' W 075°11'0 0.0
2017-Apr-27 04:00N 39°53' W 075°11'0 0.0
2017-Apr-27 03:30N 39°53' W 075°11'0 0.0
2017-Apr-27 03:00N 39°53' W 075°11'0 0.0
2017-Apr-27 02:30N 39°53' W 075°11'0 0.0
2017-Apr-27 02:00N 39°53' W 075°11'0 0.0
2017-Apr-27 01:30N 39°53' W 075°11'0 0.0
2017-Apr-27 01:00N 39°53' W 075°11'0 0.0
2017-Apr-27 00:30N 39°53' W 075°11'0 0.0
2017-Apr-27 00:00N 39°53' W 075°11'0 0.0
2017-Apr-26 23:30N 39°53' W 075°11'0 0.0
2017-Apr-26 22:57N 39°53' W 075°11'0 0.0
2017-Apr-26 22:30N 39°53' W 075°11'0 0.0
2017-Apr-26 21:59N 39°53' W 075°11'0 0.0
2017-Apr-26 21:30N 39°53' W 075°11'0 0.0
2017-Apr-26 20:59N 39°53' W 075°11'0 0.0
2017-Apr-26 20:30N 39°53' W 075°11'1 2.4
2017-Apr-26 20:00N 39°53' W 075°09'1 2.3
2017-Apr-26 19:30N 39°53' W 075°11'2 3.7
2017-Apr-26 19:00N 39°53' W 075°08'1 1.1
2017-Apr-26 18:30N 39°54' W 075°08'0 0.3
2017-Apr-26 18:00N 39°54' W 075°08'0 0.0
2017-Apr-26 17:30N 39°54' W 075°08'0 0.3
2017-Apr-26 17:00N 39°54' W 075°08'0 0.7
2017-Apr-26 16:30N 39°54' W 075°08'2 4.0
2017-Apr-26 15:58N 39°53' W 075°10'0 0.1
2017-Apr-26 13:52N 39°53' W 075°11'1 1.3
2017-Apr-26 12:50N 39°53' W 075°09'1 0.8
2017-Apr-26 11:27N 39°54' W 075°08'0 0.3
2017-Apr-26 11:00N 39°54' W 075°08'0 0.1
2017-Apr-26 09:36N 39°54' W 075°08'0 0.1
2017-Apr-26 09:29N 39°54' W 075°08'4 0.9
2017-Apr-26 04:52N 39°52' W 075°13'0 0.0
2017-Apr-26 04:30N 39°52' W 075°13'0 0.0
2017-Apr-26 04:00N 39°52' W 075°13'0 0.3
2017-Apr-26 03:30N 39°52' W 075°13'2 3.8
2017-Apr-26 02:59N 39°51' W 075°15'1 2.3
2017-Apr-26 02:30N 39°52' W 075°14'1 1.7
2017-Apr-26 02:00N 39°52' W 075°13'0 0.1
2017-Apr-26 01:30N 39°52' W 075°13'0 0.0
2017-Apr-26 01:00N 39°52' W 075°13'2 2.4
2017-Apr-26 00:00N 39°51' W 075°16'0 0.0
2017-Apr-25 23:24N 39°51' W 075°16'0 0.0
2017-Apr-25 22:59N 39°51' W 075°16'0 0.0
2017-Apr-25 22:20N 39°51' W 075°16'0 0.0
2017-Apr-25 21:56N 39°51' W 075°16'1 3.2
2017-Apr-25 21:30N 39°51' W 075°17'4 8.4
2017-Apr-25 21:00N 39°49' W 075°23'2 3.1
2017-Apr-25 20:30N 39°49' W 075°24'0 0.0
2017-Apr-25 20:00N 39°49' W 075°24'0 0.4
2017-Apr-25 19:30N 39°49' W 075°24'2 4.9
2017-Apr-25 19:00N 39°50' W 075°22'611.3
2017-Apr-25 18:30N 39°51' W 075°15'4 7.4
2017-Apr-25 18:00N 39°53' W 075°11'0 0.0
2017-Apr-25 17:30N 39°53' W 075°11'0 0.0
2017-Apr-25 17:00N 39°53' W 075°11'0 0.0
2017-Apr-25 16:30N 39°53' W 075°11'0 0.0
2017-Apr-25 16:00N 39°53' W 075°11'0 0.0
2017-Apr-25 15:30N 39°53' W 075°11'0 0.0
2017-Apr-25 15:00N 39°53' W 075°11'0 0.3
2017-Apr-25 14:00N 39°53' W 075°10'4 7.0
2017-Apr-25 13:30N 39°56' W 075°08'3 6.5
2017-Apr-25 13:00N 39°59' W 075°06'0 0.8
2017-Apr-25 12:30N 39°58' W 075°06'3 5.6
2017-Apr-25 12:00N 39°56' W 075°08'3 6.1
2017-Apr-25 11:30N 39°53' W 075°08'2 3.5
2017-Apr-25 11:00N 39°53' W 075°11'0 0.0
2017-Apr-25 10:30N 39°53' W 075°11'0 0.0
2017-Apr-25 10:00N 39°53' W 075°11'0 0.0
2017-Apr-25 09:30N 39°53' W 075°11'0 0.0
2017-Apr-25 09:00N 39°53' W 075°11'0 0.0
2017-Apr-25 08:30N 39°53' W 075°11'0 0.0
2017-Apr-25 08:00N 39°53' W 075°11'1 1.4
2017-Apr-25 07:30N 39°53' W 075°11'4 9.1
2017-Apr-25 07:00N 39°51' W 075°17'510.7
2017-Apr-25 06:30N 39°49' W 075°23'510.3
2017-Apr-25 06:00N 39°46' W 075°28'612.0
2017-Apr-25 05:30N 39°40' W 075°32'510.9
2017-Apr-25 05:00N 39°35' W 075°34'2 3.2
2017-Apr-25 04:30N 39°35' W 075°36'0 0.0
2017-Apr-25 04:00N 39°35' W 075°36'1 2.3
2017-Apr-25 03:30N 39°35' W 075°34'1 2.4
2017-Apr-25 03:00N 39°36' W 075°34'4 7.2
2017-Apr-25 02:30N 39°39' W 075°33'4 7.9
2017-Apr-25 02:00N 39°43' W 075°31'4 7.9
2017-Apr-25 01:30N 39°46' W 075°28'3 6.6
2017-Apr-25 01:00N 39°48' W 075°25'0 0.1
2017-Apr-25 00:30N 39°48' W 075°25'1 1.8
2017-Apr-25 00:00N 39°48' W 075°26'0 0.0
2017-Apr-24 23:30N 39°48' W 075°26'0 0.0
2017-Apr-24 23:00N 39°48' W 075°26'0 0.0
2017-Apr-24 22:30N 39°48' W 075°26'0 0.0
2017-Apr-24 22:00N 39°48' W 075°26'0 0.0
2017-Apr-24 21:30N 39°48' W 075°26'0 0.0
2017-Apr-24 21:00N 39°48' W 075°26'0 0.0
2017-Apr-24 20:30N 39°48' W 075°26'0 0.0
2017-Apr-24 20:00N 39°48' W 075°26'0 0.0
2017-Apr-24 19:30N 39°48' W 075°26'0 0.0
2017-Apr-24 19:00N 39°48' W 075°26'1 1.1
2017-Apr-24 18:30N 39°48' W 075°25'0 0.4
2017-Apr-24 18:00N 39°48' W 075°25'0 0.3
2017-Apr-24 17:30N 39°48' W 075°25'1 2.3
2017-Apr-24 17:00N 39°49' W 075°24'0 0.1
2017-Apr-24 16:30N 39°49' W 075°23'0 0.0
2017-Apr-24 16:00N 39°49' W 075°23'2 4.3
2017-Apr-24 15:30N 39°50' W 075°21'4 7.3
2017-Apr-24 14:58N 39°51' W 075°16'3 7.3
2017-Apr-24 14:30N 39°52' W 075°12'2 1.6
2017-Apr-24 13:30N 39°53' W 075°11'0 0.0
2017-Apr-24 13:00N 39°53' W 075°11'0 0.0
2017-Apr-24 12:30N 39°53' W 075°11'0 0.0
2017-Apr-24 12:00N 39°53' W 075°11'0 0.0
2017-Apr-24 11:30N 39°53' W 075°11'1 1.8
2017-Apr-24 11:00N 39°53' W 075°10'0 0.0
2017-Apr-24 10:30N 39°53' W 075°10'2 3.4
2017-Apr-24 10:00N 39°53' W 075°12'1 1.9
2017-Apr-24 09:30N 39°53' W 075°11'0 0.0
2017-Apr-24 09:00N 39°53' W 075°11'0 0.0
2017-Apr-24 08:30N 39°53' W 075°11'0 0.0
2017-Apr-24 08:00N 39°53' W 075°11'0 0.0
2017-Apr-24 07:30N 39°53' W 075°11'2 4.4
2017-Apr-24 07:00N 39°52' W 075°13'0 0.1
2017-Apr-24 06:27N 39°52' W 075°13'0 0.0
2017-Apr-24 05:53N 39°52' W 075°13'1 2.0
2017-Apr-24 05:30N 39°52' W 075°14'2 3.2
2017-Apr-24 05:00N 39°51' W 075°16'2 3.9
2017-Apr-24 04:30N 39°52' W 075°13'0 0.7
2017-Apr-24 03:53N 39°52' W 075°13'2 5.8
2017-Apr-24 03:30N 39°53' W 075°11'0 0.0
2017-Apr-24 03:00N 39°53' W 075°11'0 0.0
2017-Apr-24 02:30N 39°53' W 075°11'0 0.0
2017-Apr-24 02:00N 39°53' W 075°11'0 0.0
2017-Apr-24 01:30N 39°53' W 075°11'0 0.0
2017-Apr-24 01:00N 39°53' W 075°11'0 0.0
2017-Apr-24 00:30N 39°53' W 075°11'0 0.0
2017-Apr-24 00:00N 39°53' W 075°11'0 0.0
2017-Apr-23 23:30N 39°53' W 075°11'0 0.0
2017-Apr-23 23:00N 39°53' W 075°11'0 0.0
2017-Apr-23 22:30N 39°53' W 075°11'0 0.0
2017-Apr-23 22:00N 39°53' W 075°11'0 0.0
2017-Apr-23 21:30N 39°53' W 075°11'0 0.0
2017-Apr-23 21:00N 39°53' W 075°11'1 2.4
2017-Apr-23 20:30N 39°53' W 075°09'2 3.2
2017-Apr-23 20:00N 39°54' W 075°08'1 1.4
2017-Apr-23 19:30N 39°54' W 075°08'2 3.7
2017-Apr-23 19:00N 39°53' W 075°11'0 0.0
2017-Apr-23 18:30N 39°53' W 075°11'0 0.0
2017-Apr-23 18:00N 39°53' W 075°11'0 0.0
2017-Apr-23 17:30N 39°53' W 075°11'0 0.0
2017-Apr-23 17:00N 39°53' W 075°11'0 0.0
2017-Apr-23 16:30N 39°53' W 075°11'0 0.0
2017-Apr-23 16:00N 39°53' W 075°11'0 0.0
2017-Apr-23 15:30N 39°53' W 075°11'0 0.0
2017-Apr-23 15:00N 39°53' W 075°11'0 0.0
2017-Apr-23 14:30N 39°53' W 075°11'0 0.0
2017-Apr-23 13:30N 39°53' W 075°11'0 0.0
2017-Apr-23 13:00N 39°53' W 075°11'0 0.1
2017-Apr-23 12:30N 39°53' W 075°11'3 6.4
2017-Apr-23 12:00N 39°56' W 075°08'1 1.2
2017-Apr-23 11:30N 39°56' W 075°08'1 2.5
2017-Apr-23 11:00N 39°55' W 075°08'1 2.6
2017-Apr-23 10:30N 39°54' W 075°08'3 6.1
2017-Apr-23 10:00N 39°53' W 075°12'5 9.2
2017-Apr-23 09:30N 39°51' W 075°18'510.4
2017-Apr-23 09:00N 39°49' W 075°24'5 9.8
2017-Apr-23 08:30N 39°46' W 075°29'510.7
2017-Apr-23 08:00N 39°41' W 075°31'510.4
2017-Apr-23 07:30N 39°36' W 075°34'510.5
2017-Apr-23 07:00N 39°31' W 075°33'510.2
2017-Apr-23 06:30N 39°26' W 075°32'510.5
2017-Apr-23 06:00N 39°22' W 075°27'510.6
2017-Apr-23 05:30N 39°18' W 075°23'510.4
2017-Apr-23 05:00N 39°14' W 075°19'8 2.8
2017-Apr-23 02:02N 39°07' W 075°13'110.2
2017-Apr-23 01:57N 39°08' W 075°13'510.0
2017-Apr-23 01:30N 39°11' W 075°17'5 9.4
2017-Apr-23 01:00N 39°15' W 075°20'4 8.3
2017-Apr-23 00:30N 39°18' W 075°24'3 7.0
2017-Apr-23 00:00N 39°21' W 075°26'4 8.0
2017-Apr-22 23:30N 39°24' W 075°30'3 6.4
2017-Apr-22 23:00N 39°27' W 075°33'4 7.1
2017-Apr-22 22:30N 39°30' W 075°33'4 7.5
2017-Apr-22 22:00N 39°34' W 075°33'4 8.0
2017-Apr-22 21:30N 39°37' W 075°35'5 9.1
2017-Apr-22 21:00N 39°41' W 075°31'510.2
2017-Apr-22 20:30N 39°46' W 075°29'510.4
2017-Apr-22 20:00N 39°49' W 075°23'510.4
2017-Apr-22 19:30N 39°51' W 075°17'510.4
2017-Apr-22 19:00N 39°53' W 075°11'4 8.1
2017-Apr-22 18:30N 39°56' W 075°08'2 4.7
2017-Apr-22 18:00N 39°58' W 075°06'0 1.0
2017-Apr-22 17:30N 39°58' W 075°07'3 6.1
2017-Apr-22 17:00N 39°55' W 075°08'3 5.6
2017-Apr-22 16:30N 39°53' W 075°11'0 0.0
2017-Apr-22 16:00N 39°53' W 075°11'0 0.0
2017-Apr-22 15:30N 39°53' W 075°11'0 0.0
2017-Apr-22 15:00N 39°53' W 075°11'0 0.0
2017-Apr-22 14:30N 39°53' W 075°11'0 0.0
2017-Apr-22 13:30N 39°53' W 075°11'0 0.0
2017-Apr-22 13:00N 39°53' W 075°11'0 0.0
2017-Apr-22 12:30N 39°53' W 075°11'0 0.0
2017-Apr-22 12:00N 39°53' W 075°11'0 0.0
2017-Apr-22 11:30N 39°53' W 075°11'0 0.0
2017-Apr-22 11:00N 39°53' W 075°11'0 0.0
2017-Apr-22 10:30N 39°53' W 075°11'0 0.0
2017-Apr-22 10:00N 39°53' W 075°11'0 0.0
2017-Apr-22 09:30N 39°53' W 075°11'0 0.0
2017-Apr-22 09:00N 39°53' W 075°11'0 0.0
2017-Apr-22 08:30N 39°53' W 075°11'0 0.0
2017-Apr-22 08:00N 39°53' W 075°11'0 0.0
2017-Apr-22 07:30N 39°53' W 075°11'0 0.0
2017-Apr-22 07:00N 39°53' W 075°11'0 0.0
2017-Apr-22 06:30N 39°53' W 075°11'0 0.0
2017-Apr-22 06:00N 39°53' W 075°11'0 0.0
2017-Apr-22 05:30N 39°53' W 075°11'0 0.0
2017-Apr-22 05:00N 39°53' W 075°11'0 0.0
2017-Apr-22 04:30N 39°53' W 075°11'0 0.0
2017-Apr-22 04:00N 39°53' W 075°11'0 0.0
2017-Apr-22 03:30N 39°53' W 075°11'0 0.0
2017-Apr-22 03:00N 39°53' W 075°11'2 4.3
2017-Apr-22 02:30N 39°52' W 075°13'0 0.0
2017-Apr-22 02:00N 39°52' W 075°13'0 0.0
2017-Apr-22 01:30N 39°52' W 075°13'0 0.4
2017-Apr-22 01:00N 39°52' W 075°13'1 2.8
2017-Apr-22 00:30N 39°51' W 075°15'1 1.9
2017-Apr-21 23:59N 39°51' W 075°16'0 0.3
2017-Apr-21 23:28N 39°51' W 075°16'0 0.0
2017-Apr-21 22:57N 39°51' W 075°16'1 1.4
2017-Apr-21 22:29N 39°51' W 075°17'0 0.6
2017-Apr-21 22:00N 39°51' W 075°16'3 5.7
2017-Apr-21 21:30N 39°52' W 075°13'2 4.2
2017-Apr-21 21:00N 39°53' W 075°11'0 0.0
2017-Apr-21 20:30N 39°53' W 075°11'0 0.0
2017-Apr-21 20:00N 39°53' W 075°11'0 0.0
2017-Apr-21 19:30N 39°53' W 075°11'0 0.0
2017-Apr-21 19:00N 39°53' W 075°11'3 5.0
2017-Apr-21 18:30N 39°54' W 075°08'4 7.6
2017-Apr-21 18:00N 39°58' W 075°07'1 1.4
2017-Apr-21 17:30N 39°58' W 075°08'3 6.2
2017-Apr-21 17:00N 39°55' W 075°08'3 6.0
2017-Apr-21 16:30N 39°53' W 075°11'4 7.9
2017-Apr-21 16:00N 39°51' W 075°16'4 8.0
2017-Apr-21 15:30N 39°51' W 075°21'4 7.8
2017-Apr-21 15:00N 39°48' W 075°25'4 8.4
2017-Apr-21 14:30N 39°46' W 075°29'9 8.7
2017-Apr-21 13:30N 39°38' W 075°34'4 9.0
2017-Apr-21 13:00N 39°34' W 075°33'5 9.5
2017-Apr-21 12:30N 39°29' W 075°34'5 9.2
2017-Apr-21 12:00N 39°25' W 075°31'510.5
2017-Apr-21 11:30N 39°21' W 075°26'14 4.1
2017-Apr-21 08:07N 39°10' W 075°16'211.9
2017-Apr-21 07:58N 39°12' W 075°17'512.0
2017-Apr-21 07:30N 39°16' W 075°21'612.4
2017-Apr-21 07:00N 39°21' W 075°26'713.2
2017-Apr-21 06:30N 39°26' W 075°32'612.9
2017-Apr-21 06:01N 39°32' W 075°33'713.5
2017-Apr-21 05:31N 39°39' W 075°34'714.5
2017-Apr-21 05:00N 39°45' W 075°29'713.4
2017-Apr-21 04:30N 39°50' W 075°23'611.1
2017-Apr-21 04:00N 39°51' W 075°16'4 8.9
2017-Apr-21 03:31N 39°53' W 075°11'0 0.0
2017-Apr-21 03:00N 39°53' W 075°11'0 0.0
2017-Apr-21 02:30N 39°53' W 075°11'0 0.0
2017-Apr-21 02:01N 39°53' W 075°11'0 0.0
2017-Apr-21 01:30N 39°53' W 075°11'0 0.0
2017-Apr-21 01:00N 39°53' W 075°11'0 0.0
2017-Apr-21 00:30N 39°53' W 075°11'0 0.0
2017-Apr-21 00:00N 39°53' W 075°11'0 0.0
2017-Apr-20 23:31N 39°53' W 075°11'0 0.0
2017-Apr-20 23:00N 39°53' W 075°11'1 2.8
2017-Apr-20 22:31N 39°53' W 075°12'1 1.6
2017-Apr-20 22:00N 39°52' W 075°13'2 3.1
2017-Apr-20 21:30N 39°53' W 075°11'1 1.3
2017-Apr-20 21:01N 39°53' W 075°11'  
Track history (hours):
 
Tides and Currents Weather Stations Pressure Air Temp Water Temp Dewpoint Dewpoint Depression Visibility Wind Speed Wind Dir Waves Ship Positions

Cape Cod

Owner: MORAN TOWING CORPORATION, New Canaan, CT. More information available from US FCC via Universal Licensing System and Coast Guard Vessel Documentation Center.

Last reported at 2017-Apr-30 20:30 UTC. Time now 2017-Apr-30 20:41 UTC.
Position N 39°53' W 075°11'.

Length 33 m; draft 4.8 m.

Type: Tug. MMSI: 366939770.

Date/timePositionNaut miles runAvg speedWind from/ knotsBaromVisibWave heightAir tempDewpointWater temp
2017-Apr-30 20:30N 39°53' W 075°11'0 0.0
2017-Apr-30 20:00N 39°53' W 075°11'0 0.0
2017-Apr-30 19:30N 39°53' W 075°11'1 1.3
2017-Apr-30 19:00N 39°53' W 075°10'0 0.6
2017-Apr-30 18:30N 39°53' W 075°09'0 0.1
2017-Apr-30 18:00N 39°53' W 075°10'1 1.8
2017-Apr-30 17:30N 39°53' W 075°11'0 0.0
2017-Apr-30 17:00N 39°53' W 075°11'0 0.0
2017-Apr-30 16:30N 39°53' W 075°11'0 0.0
2017-Apr-30 16:00N 39°53' W 075°11'0 0.0
2017-Apr-30 15:30N 39°53' W 075°11'0 0.0
2017-Apr-30 15:00N 39°53' W 075°11'0 0.0
2017-Apr-30 14:30N 39°53' W 075°11'0 0.0
2017-Apr-30 13:30N 39°53' W 075°11'0 0.0
2017-Apr-30 13:00N 39°53' W 075°11'0 0.0
2017-Apr-30 12:30N 39°53' W 075°11'0 0.0
2017-Apr-30 12:00N 39°53' W 075°11'0 0.0
2017-Apr-30 11:30N 39°53' W 075°11'0 0.0
2017-Apr-30 11:00N 39°53' W 075°11'0 0.0
2017-Apr-30 10:30N 39°53' W 075°11'0 0.0
2017-Apr-30 10:00N 39°53' W 075°11'0 0.0
2017-Apr-30 09:30N 39°53' W 075°11'0 0.0
2017-Apr-30 09:00N 39°53' W 075°11'0 0.0
2017-Apr-30 08:30N 39°53' W 075°11'0 0.0
2017-Apr-30 08:00N 39°53' W 075°11'0 0.0
2017-Apr-30 07:30N 39°53' W 075°11'0 0.0
2017-Apr-30 07:00N 39°53' W 075°11'0 0.0
2017-Apr-30 06:30N 39°53' W 075°11'0 0.0
2017-Apr-30 06:00N 39°53' W 075°11'4 8.7
2017-Apr-30 05:30N 39°51' W 075°16'0 0.8
2017-Apr-30 05:00N 39°51' W 075°16'1 2.2
2017-Apr-30 04:30N 39°51' W 075°17'2 4.8
2017-Apr-30 04:00N 39°51' W 075°20'0 0.3
2017-Apr-30 03:30N 39°51' W 075°21'4 8.9
2017-Apr-30 03:00N 39°48' W 075°25'5 9.5
2017-Apr-30 02:30N 39°45' W 075°30'5 9.9
2017-Apr-30 02:00N 39°40' W 075°32'5 9.3
2017-Apr-30 01:30N 39°36' W 075°34'2 3.4
2017-Apr-30 01:00N 39°34' W 075°34'1 3.0
2017-Apr-30 00:30N 39°35' W 075°35'0 0.3
2017-Apr-30 00:00N 39°35' W 075°36'0 0.0
2017-Apr-29 23:30N 39°35' W 075°36'0 0.0
2017-Apr-29 23:00N 39°35' W 075°36'0 0.0
2017-Apr-29 22:30N 39°35' W 075°36'0 0.0
2017-Apr-29 22:00N 39°35' W 075°36'0 0.0
2017-Apr-29 21:30N 39°35' W 075°36'0 0.0
2017-Apr-29 21:00N 39°35' W 075°36'0 0.0
2017-Apr-29 20:30N 39°35' W 075°36'0 0.0
2017-Apr-29 20:00N 39°35' W 075°36'0 0.0
2017-Apr-29 19:30N 39°35' W 075°36'0 0.0
2017-Apr-29 19:00N 39°35' W 075°36'0 0.0
2017-Apr-29 18:30N 39°35' W 075°36'0 0.0
2017-Apr-29 18:00N 39°35' W 075°36'0 0.0
2017-Apr-29 17:30N 39°35' W 075°36'0 0.0
2017-Apr-29 17:00N 39°35' W 075°36'0 0.0
2017-Apr-29 16:30N 39°35' W 075°36'0 0.0
2017-Apr-29 16:00N 39°35' W 075°36'2 4.2
2017-Apr-29 15:30N 39°34' W 075°33'713.2
2017-Apr-29 15:00N 39°27' W 075°33'1413.8
2017-Apr-29 14:00N 39°17' W 075°22'9 2.9
2017-Apr-29 10:51N 39°09' W 075°15'410.8
2017-Apr-29 10:30N 39°13' W 075°17'611.5
2017-Apr-29 10:00N 39°17' W 075°22'611.8
2017-Apr-29 09:30N 39°22' W 075°27'510.9
2017-Apr-29 09:00N 39°26' W 075°32'5 9.9
2017-Apr-29 08:30N 39°31' W 075°33'5 9.8
2017-Apr-29 08:00N 39°35' W 075°34'4 7.7
2017-Apr-29 07:30N 39°39' W 075°33'4 7.9
2017-Apr-29 07:00N 39°43' W 075°31'5 7.6
2017-Apr-29 06:20N 39°47' W 075°27'3 7.4
2017-Apr-29 05:58N 39°49' W 075°24'5 7.0
2017-Apr-29 05:19N 39°51' W 075°19'3 7.6
2017-Apr-29 05:00N 39°51' W 075°16'4 7.4
2017-Apr-29 04:30N 39°53' W 075°12'3 6.9
2017-Apr-29 04:00N 39°54' W 075°08'4 7.9
2017-Apr-29 03:30N 39°58' W 075°07'0 0.5
2017-Apr-29 03:00N 39°58' W 075°07'0 0.8
2017-Apr-29 02:30N 39°58' W 075°07'3 6.2
2017-Apr-29 02:00N 39°55' W 075°08'3 5.7
2017-Apr-29 01:30N 39°53' W 075°11'0 0.2
2017-Apr-29 01:00N 39°53' W 075°11'0 0.0
2017-Apr-29 00:30N 39°53' W 075°11'0 0.0
2017-Apr-29 00:00N 39°53' W 075°11'0 0.0
2017-Apr-28 23:30N 39°53' W 075°11'0 0.0
2017-Apr-28 23:00N 39°53' W 075°11'0 0.0
2017-Apr-28 22:30N 39°53' W 075°11'0 0.0
2017-Apr-28 22:00N 39°53' W 075°11'0 0.0
2017-Apr-28 21:30N 39°53' W 075°11'0 0.0
2017-Apr-28 21:00N 39°53' W 075°11'0 0.0
2017-Apr-28 20:30N 39°53' W 075°11'0 0.0
2017-Apr-28 20:00N 39°53' W 075°11'0 0.0
2017-Apr-28 19:30N 39°53' W 075°11'0 0.0
2017-Apr-28 19:00N 39°53' W 075°11'0 0.0
2017-Apr-28 18:30N 39°53' W 075°11'0 0.0
2017-Apr-28 18:00N 39°53' W 075°11'0 0.0
2017-Apr-28 17:30N 39°53' W 075°11'0 0.0
2017-Apr-28 17:00N 39°53' W 075°11'0 0.0
2017-Apr-28 16:30N 39°53' W 075°11'0 0.0
2017-Apr-28 16:00N 39°53' W 075°11'0 0.0
2017-Apr-28 15:30N 39°53' W 075°11'0 0.0
2017-Apr-28 15:00N 39°53' W 075°11'0 0.0
2017-Apr-28 14:00N 39°53' W 075°11'2 4.2
2017-Apr-28 13:30N 39°52' W 075°13'0 0.3
2017-Apr-28 12:59N 39°52' W 075°13'0 0.1
2017-Apr-28 12:30N 39°52' W 075°13'0 0.2
2017-Apr-28 12:00N 39°52' W 075°13'0 0.6
2017-Apr-28 11:30N 39°52' W 075°13'2 3.9
2017-Apr-28 11:00N 39°53' W 075°11'0 0.0
2017-Apr-28 10:30N 39°53' W 075°11'0 0.0
2017-Apr-28 10:00N 39°53' W 075°11'0 0.0
2017-Apr-28 09:30N 39°53' W 075°11'0 0.0
2017-Apr-28 09:00N 39°53' W 075°11'0 0.0
2017-Apr-28 08:30N 39°53' W 075°11'0 0.0
2017-Apr-28 08:00N 39°53' W 075°11'0 0.0
2017-Apr-28 07:30N 39°53' W 075°11'0 0.0
2017-Apr-28 07:00N 39°53' W 075°11'0 0.0
2017-Apr-28 06:30N 39°53' W 075°11'0 0.0
2017-Apr-28 06:00N 39°53' W 075°11'2 4.1
2017-Apr-28 05:30N 39°54' W 075°08'4 7.8
2017-Apr-28 05:00N 39°58' W 075°08'1 1.8
2017-Apr-28 04:30N 39°58' W 075°07'0 0.3
2017-Apr-28 04:00N 39°58' W 075°07'1 2.0
2017-Apr-28 03:30N 39°58' W 075°08'4 8.1
2017-Apr-28 02:59N 39°53' W 075°08'5 9.3
2017-Apr-28 02:29N 39°52' W 075°14'4 9.3
2017-Apr-28 02:00N 39°51' W 075°19'4 8.8
2017-Apr-28 01:30N 39°49' W 075°24'4 8.8
2017-Apr-28 01:00N 39°46' W 075°29'4 8.5
2017-Apr-28 00:30N 39°42' W 075°31'4 8.2
2017-Apr-28 00:00N 39°38' W 075°34'4 7.5
2017-Apr-27 23:30N 39°35' W 075°33'4 7.6
2017-Apr-27 23:00N 39°31' W 075°33'4 7.8
2017-Apr-27 22:30N 39°27' W 075°33'4 7.9
2017-Apr-27 22:00N 39°24' W 075°30'4 7.5
2017-Apr-27 21:26N 39°21' W 075°26'9 1.6
2017-Apr-27 15:54N 39°14' W 075°19'511.8
2017-Apr-27 15:30N 39°18' W 075°23'510.9
2017-Apr-27 15:00N 39°22' W 075°27'1010.3
2017-Apr-27 14:00N 39°31' W 075°33'611.3
2017-Apr-27 13:30N 39°37' W 075°35'612.8
2017-Apr-27 13:01N 39°42' W 075°31'1214.3
2017-Apr-27 12:09N 39°51' W 075°19'320.3
2017-Apr-27 12:01N 39°51' W 075°16'4 8.9
2017-Apr-27 11:30N 39°53' W 075°11'0 0.0
2017-Apr-27 11:00N 39°53' W 075°11'0 0.0
2017-Apr-27 10:26N 39°53' W 075°11'0 0.0
2017-Apr-27 09:52N 39°53' W 075°11'0 0.0
2017-Apr-27 09:26N 39°53' W 075°11'0 0.0
2017-Apr-27 08:56N 39°53' W 075°11'0 0.0
2017-Apr-27 08:26N 39°53' W 075°11'0 0.0
2017-Apr-27 07:58N 39°53' W 075°11'0 0.0
2017-Apr-27 07:27N 39°53' W 075°11'0 0.0
2017-Apr-27 06:56N 39°53' W 075°11'0 0.0
2017-Apr-27 06:22N 39°53' W 075°11'0 0.0
2017-Apr-27 06:00N 39°53' W 075°11'0 0.0
2017-Apr-27 05:30N 39°53' W 075°11'0 0.0
2017-Apr-27 05:00N 39°53' W 075°11'0 0.0
2017-Apr-27 04:30N 39°53' W 075°11'0 0.0
2017-Apr-27 04:00N 39°53' W 075°11'0 0.0
2017-Apr-27 03:30N 39°53' W 075°11'0 0.0
2017-Apr-27 03:00N 39°53' W 075°11'0 0.0
2017-Apr-27 02:30N 39°53' W 075°11'0 0.0
2017-Apr-27 02:00N 39°53' W 075°11'0 0.0
2017-Apr-27 01:30N 39°53' W 075°11'0 0.0
2017-Apr-27 01:00N 39°53' W 075°11'0 0.0
2017-Apr-27 00:30N 39°53' W 075°11'0 0.0
2017-Apr-27 00:00N 39°53' W 075°11'0 0.0
2017-Apr-26 23:30N 39°53' W 075°11'0 0.0
2017-Apr-26 22:57N 39°53' W 075°11'0 0.0
2017-Apr-26 22:30N 39°53' W 075°11'0 0.0
2017-Apr-26 21:59N 39°53' W 075°11'0 0.0
2017-Apr-26 21:30N 39°53' W 075°11'0 0.0
2017-Apr-26 20:59N 39°53' W 075°11'0 0.0
2017-Apr-26 20:30N 39°53' W 075°11'1 2.4
2017-Apr-26 20:00N 39°53' W 075°09'1 2.3
2017-Apr-26 19:30N 39°53' W 075°11'2 3.7
2017-Apr-26 19:00N 39°53' W 075°08'1 1.1
2017-Apr-26 18:30N 39°54' W 075°08'0 0.3
2017-Apr-26 18:00N 39°54' W 075°08'0 0.0
2017-Apr-26 17:30N 39°54' W 075°08'0 0.3
2017-Apr-26 17:00N 39°54' W 075°08'0 0.7
2017-Apr-26 16:30N 39°54' W 075°08'2 4.0
2017-Apr-26 15:58N 39°53' W 075°10'0 0.1
2017-Apr-26 13:52N 39°53' W 075°11'1 1.3
2017-Apr-26 12:50N 39°53' W 075°09'1 0.8
2017-Apr-26 11:27N 39°54' W 075°08'0 0.3
2017-Apr-26 11:00N 39°54' W 075°08'0 0.1
2017-Apr-26 09:36N 39°54' W 075°08'0 0.1
2017-Apr-26 09:29N 39°54' W 075°08'4 0.9
2017-Apr-26 04:52N 39°52' W 075°13'0 0.0
2017-Apr-26 04:30N 39°52' W 075°13'0 0.0
2017-Apr-26 04:00N 39°52' W 075°13'0 0.3
2017-Apr-26 03:30N 39°52' W 075°13'2 3.8
2017-Apr-26 02:59N 39°51' W 075°15'1 2.3
2017-Apr-26 02:30N 39°52' W 075°14'1 1.7
2017-Apr-26 02:00N 39°52' W 075°13'0 0.1
2017-Apr-26 01:30N 39°52' W 075°13'0 0.0
2017-Apr-26 01:00N 39°52' W 075°13'2 2.4
2017-Apr-26 00:00N 39°51' W 075°16'0 0.0
2017-Apr-25 23:24N 39°51' W 075°16'0 0.0
2017-Apr-25 22:59N 39°51' W 075°16'0 0.0
2017-Apr-25 22:20N 39°51' W 075°16'0 0.0
2017-Apr-25 21:56N 39°51' W 075°16'1 3.2
2017-Apr-25 21:30N 39°51' W 075°17'4 8.4
2017-Apr-25 21:00N 39°49' W 075°23'2 3.1
2017-Apr-25 20:30N 39°49' W 075°24'0 0.0
2017-Apr-25 20:00N 39°49' W 075°24'0 0.4
2017-Apr-25 19:30N 39°49' W 075°24'2 4.9
2017-Apr-25 19:00N 39°50' W 075°22'611.3
2017-Apr-25 18:30N 39°51' W 075°15'4 7.4
2017-Apr-25 18:00N 39°53' W 075°11'0 0.0
2017-Apr-25 17:30N 39°53' W 075°11'0 0.0
2017-Apr-25 17:00N 39°53' W 075°11'0 0.0
2017-Apr-25 16:30N 39°53' W 075°11'0 0.0
2017-Apr-25 16:00N 39°53' W 075°11'0 0.0
2017-Apr-25 15:30N 39°53' W 075°11'0 0.0
2017-Apr-25 15:00N 39°53' W 075°11'0 0.3
2017-Apr-25 14:00N 39°53' W 075°10'4 7.0
2017-Apr-25 13:30N 39°56' W 075°08'3 6.5
2017-Apr-25 13:00N 39°59' W 075°06'0 0.8
2017-Apr-25 12:30N 39°58' W 075°06'3 5.6
2017-Apr-25 12:00N 39°56' W 075°08'3 6.1
2017-Apr-25 11:30N 39°53' W 075°08'2 3.5
2017-Apr-25 11:00N 39°53' W 075°11'0 0.0
2017-Apr-25 10:30N 39°53' W 075°11'0 0.0
2017-Apr-25 10:00N 39°53' W 075°11'0 0.0
2017-Apr-25 09:30N 39°53' W 075°11'0 0.0
2017-Apr-25 09:00N 39°53' W 075°11'0 0.0
2017-Apr-25 08:30N 39°53' W 075°11'0 0.0
2017-Apr-25 08:00N 39°53' W 075°11'1 1.4
2017-Apr-25 07:30N 39°53' W 075°11'4 9.1
2017-Apr-25 07:00N 39°51' W 075°17'510.7
2017-Apr-25 06:30N 39°49' W 075°23'510.3
2017-Apr-25 06:00N 39°46' W 075°28'612.0
2017-Apr-25 05:30N 39°40' W 075°32'510.9
2017-Apr-25 05:00N 39°35' W 075°34'2 3.2
2017-Apr-25 04:30N 39°35' W 075°36'0 0.0
2017-Apr-25 04:00N 39°35' W 075°36'1 2.3
2017-Apr-25 03:30N 39°35' W 075°34'1 2.4
2017-Apr-25 03:00N 39°36' W 075°34'4 7.2
2017-Apr-25 02:30N 39°39' W 075°33'4 7.9
2017-Apr-25 02:00N 39°43' W 075°31'4 7.9
2017-Apr-25 01:30N 39°46' W 075°28'3 6.6
2017-Apr-25 01:00N 39°48' W 075°25'0 0.1
2017-Apr-25 00:30N 39°48' W 075°25'1 1.8
2017-Apr-25 00:00N 39°48' W 075°26'0 0.0
2017-Apr-24 23:30N 39°48' W 075°26'0 0.0
2017-Apr-24 23:00N 39°48' W 075°26'0 0.0
2017-Apr-24 22:30N 39°48' W 075°26'0 0.0
2017-Apr-24 22:00N 39°48' W 075°26'0 0.0
2017-Apr-24 21:30N 39°48' W 075°26'0 0.0
2017-Apr-24 21:00N 39°48' W 075°26'0 0.0
2017-Apr-24 20:30N 39°48' W 075°26'0 0.0
2017-Apr-24 20:00N 39°48' W 075°26'0 0.0
2017-Apr-24 19:30N 39°48' W 075°26'0 0.0
2017-Apr-24 19:00N 39°48' W 075°26'1 1.1
2017-Apr-24 18:30N 39°48' W 075°25'0 0.4
2017-Apr-24 18:00N 39°48' W 075°25'0 0.3
2017-Apr-24 17:30N 39°48' W 075°25'1 2.3
2017-Apr-24 17:00N 39°49' W 075°24'0 0.1
2017-Apr-24 16:30N 39°49' W 075°23'0 0.0
2017-Apr-24 16:00N 39°49' W 075°23'2 4.3
2017-Apr-24 15:30N 39°50' W 075°21'4 7.3
2017-Apr-24 14:58N 39°51' W 075°16'3 7.3
2017-Apr-24 14:30N 39°52' W 075°12'2 1.6
2017-Apr-24 13:30N 39°53' W 075°11'0 0.0
2017-Apr-24 13:00N 39°53' W 075°11'0 0.0
2017-Apr-24 12:30N 39°53' W 075°11'0 0.0
2017-Apr-24 12:00N 39°53' W 075°11'0 0.0
2017-Apr-24 11:30N 39°53' W 075°11'1 1.8
2017-Apr-24 11:00N 39°53' W 075°10'0 0.0
2017-Apr-24 10:30N 39°53' W 075°10'2 3.4
2017-Apr-24 10:00N 39°53' W 075°12'1 1.9
2017-Apr-24 09:30N 39°53' W 075°11'0 0.0
2017-Apr-24 09:00N 39°53' W 075°11'0 0.0
2017-Apr-24 08:30N 39°53' W 075°11'0 0.0
2017-Apr-24 08:00N 39°53' W 075°11'0 0.0
2017-Apr-24 07:30N 39°53' W 075°11'2 4.4
2017-Apr-24 07:00N 39°52' W 075°13'0 0.1
2017-Apr-24 06:27N 39°52' W 075°13'0 0.0
2017-Apr-24 05:53N 39°52' W 075°13'1 2.0
2017-Apr-24 05:30N 39°52' W 075°14'2 3.2
2017-Apr-24 05:00N 39°51' W 075°16'2 3.9
2017-Apr-24 04:30N 39°52' W 075°13'0 0.7
2017-Apr-24 03:53N 39°52' W 075°13'2 5.8
2017-Apr-24 03:30N 39°53' W 075°11'0 0.0
2017-Apr-24 03:00N 39°53' W 075°11'0 0.0
2017-Apr-24 02:30N 39°53' W 075°11'0 0.0
2017-Apr-24 02:00N 39°53' W 075°11'0 0.0
2017-Apr-24 01:30N 39°53' W 075°11'0 0.0
2017-Apr-24 01:00N 39°53' W 075°11'0 0.0
2017-Apr-24 00:30N 39°53' W 075°11'0 0.0
2017-Apr-24 00:00N 39°53' W 075°11'0 0.0
2017-Apr-23 23:30N 39°53' W 075°11'0 0.0
2017-Apr-23 23:00N 39°53' W 075°11'0 0.0
2017-Apr-23 22:30N 39°53' W 075°11'0 0.0
2017-Apr-23 22:00N 39°53' W 075°11'0 0.0
2017-Apr-23 21:30N 39°53' W 075°11'0 0.0
2017-Apr-23 21:00N 39°53' W 075°11'1 2.4
2017-Apr-23 20:30N 39°53' W 075°09'2 3.2
2017-Apr-23 20:00N 39°54' W 075°08'1 1.4
2017-Apr-23 19:30N 39°54' W 075°08'2 3.7
2017-Apr-23 19:00N 39°53' W 075°11'0 0.0
2017-Apr-23 18:30N 39°53' W 075°11'0 0.0
2017-Apr-23 18:00N 39°53' W 075°11'0 0.0
2017-Apr-23 17:30N 39°53' W 075°11'0 0.0
2017-Apr-23 17:00N 39°53' W 075°11'0 0.0
2017-Apr-23 16:30N 39°53' W 075°11'0 0.0
2017-Apr-23 16:00N 39°53' W 075°11'0 0.0
2017-Apr-23 15:30N 39°53' W 075°11'0 0.0
2017-Apr-23 15:00N 39°53' W 075°11'0 0.0
2017-Apr-23 14:30N 39°53' W 075°11'0 0.0
2017-Apr-23 13:30N 39°53' W 075°11'0 0.0
2017-Apr-23 13:00N 39°53' W 075°11'0 0.1
2017-Apr-23 12:30N 39°53' W 075°11'3 6.4
2017-Apr-23 12:00N 39°56' W 075°08'1 1.2
2017-Apr-23 11:30N 39°56' W 075°08'1 2.5
2017-Apr-23 11:00N 39°55' W 075°08'1 2.6
2017-Apr-23 10:30N 39°54' W 075°08'3 6.1
2017-Apr-23 10:00N 39°53' W 075°12'5 9.2
2017-Apr-23 09:30N 39°51' W 075°18'510.4
2017-Apr-23 09:00N 39°49' W 075°24'5 9.8
2017-Apr-23 08:30N 39°46' W 075°29'510.7
2017-Apr-23 08:00N 39°41' W 075°31'510.4
2017-Apr-23 07:30N 39°36' W 075°34'510.5
2017-Apr-23 07:00N 39°31' W 075°33'510.2
2017-Apr-23 06:30N 39°26' W 075°32'510.5
2017-Apr-23 06:00N 39°22' W 075°27'510.6
2017-Apr-23 05:30N 39°18' W 075°23'510.4
2017-Apr-23 05:00N 39°14' W 075°19'8 2.8
2017-Apr-23 02:02N 39°07' W 075°13'110.2
2017-Apr-23 01:57N 39°08' W 075°13'510.0
2017-Apr-23 01:30N 39°11' W 075°17'5 9.4
2017-Apr-23 01:00N 39°15' W 075°20'4 8.3
2017-Apr-23 00:30N 39°18' W 075°24'3 7.0
2017-Apr-23 00:00N 39°21' W 075°26'4 8.0
2017-Apr-22 23:30N 39°24' W 075°30'3 6.4
2017-Apr-22 23:00N 39°27' W 075°33'4 7.1
2017-Apr-22 22:30N 39°30' W 075°33'4 7.5
2017-Apr-22 22:00N 39°34' W 075°33'4 8.0
2017-Apr-22 21:30N 39°37' W 075°35'5 9.1
2017-Apr-22 21:00N 39°41' W 075°31'510.2
2017-Apr-22 20:30N 39°46' W 075°29'510.4
2017-Apr-22 20:00N 39°49' W 075°23'510.4
2017-Apr-22 19:30N 39°51' W 075°17'510.4
2017-Apr-22 19:00N 39°53' W 075°11'4 8.1
2017-Apr-22 18:30N 39°56' W 075°08'2 4.7
2017-Apr-22 18:00N 39°58' W 075°06'0 1.0
2017-Apr-22 17:30N 39°58' W 075°07'3 6.1
2017-Apr-22 17:00N 39°55' W 075°08'3 5.6
2017-Apr-22 16:30N 39°53' W 075°11'0 0.0
2017-Apr-22 16:00N 39°53' W 075°11'0 0.0
2017-Apr-22 15:30N 39°53' W 075°11'0 0.0
2017-Apr-22 15:00N 39°53' W 075°11'0 0.0
2017-Apr-22 14:30N 39°53' W 075°11'0 0.0
2017-Apr-22 13:30N 39°53' W 075°11'0 0.0
2017-Apr-22 13:00N 39°53' W 075°11'0 0.0
2017-Apr-22 12:30N 39°53' W 075°11'0 0.0
2017-Apr-22 12:00N 39°53' W 075°11'0 0.0
2017-Apr-22 11:30N 39°53' W 075°11'0 0.0
2017-Apr-22 11:00N 39°53' W 075°11'0 0.0
2017-Apr-22 10:30N 39°53' W 075°11'0 0.0
2017-Apr-22 10:00N 39°53' W 075°11'0 0.0
2017-Apr-22 09:30N 39°53' W 075°11'0 0.0
2017-Apr-22 09:00N 39°53' W 075°11'0 0.0
2017-Apr-22 08:30N 39°53' W 075°11'0 0.0
2017-Apr-22 08:00N 39°53' W 075°11'0 0.0
2017-Apr-22 07:30N 39°53' W 075°11'0 0.0
2017-Apr-22 07:00N 39°53' W 075°11'0 0.0
2017-Apr-22 06:30N 39°53' W 075°11'0 0.0
2017-Apr-22 06:00N 39°53' W 075°11'0 0.0
2017-Apr-22 05:30N 39°53' W 075°11'0 0.0
2017-Apr-22 05:00N 39°53' W 075°11'0 0.0
2017-Apr-22 04:30N 39°53' W 075°11'0 0.0
2017-Apr-22 04:00N 39°53' W 075°11'0 0.0
2017-Apr-22 03:30N 39°53' W 075°11'0 0.0
2017-Apr-22 03:00N 39°53' W 075°11'2 4.3
2017-Apr-22 02:30N 39°52' W 075°13'0 0.0
2017-Apr-22 02:00N 39°52' W 075°13'0 0.0
2017-Apr-22 01:30N 39°52' W 075°13'0 0.4
2017-Apr-22 01:00N 39°52' W 075°13'1 2.8
2017-Apr-22 00:30N 39°51' W 075°15'1 1.9
2017-Apr-21 23:59N 39°51' W 075°16'0 0.3
2017-Apr-21 23:28N 39°51' W 075°16'0 0.0
2017-Apr-21 22:57N 39°51' W 075°16'1 1.4
2017-Apr-21 22:29N 39°51' W 075°17'0 0.6
2017-Apr-21 22:00N 39°51' W 075°16'3 5.7
2017-Apr-21 21:30N 39°52' W 075°13'2 4.2
2017-Apr-21 21:00N 39°53' W 075°11'0 0.0
2017-Apr-21 20:30N 39°53' W 075°11'0 0.0
2017-Apr-21 20:00N 39°53' W 075°11'0 0.0
2017-Apr-21 19:30N 39°53' W 075°11'0 0.0
2017-Apr-21 19:00N 39°53' W 075°11'3 5.0
2017-Apr-21 18:30N 39°54' W 075°08'4 7.6
2017-Apr-21 18:00N 39°58' W 075°07'1 1.4
2017-Apr-21 17:30N 39°58' W 075°08'3 6.2
2017-Apr-21 17:00N 39°55' W 075°08'3 6.0
2017-Apr-21 16:30N 39°53' W 075°11'4 7.9
2017-Apr-21 16:00N 39°51' W 075°16'4 8.0
2017-Apr-21 15:30N 39°51' W 075°21'4 7.8
2017-Apr-21 15:00N 39°48' W 075°25'4 8.4
2017-Apr-21 14:30N 39°46' W 075°29'9 8.7
2017-Apr-21 13:30N 39°38' W 075°34'4 9.0
2017-Apr-21 13:00N 39°34' W 075°33'5 9.5
2017-Apr-21 12:30N 39°29' W 075°34'5 9.2
2017-Apr-21 12:00N 39°25' W 075°31'510.5
2017-Apr-21 11:30N 39°21' W 075°26'14 4.1
2017-Apr-21 08:07N 39°10' W 075°16'211.9
2017-Apr-21 07:58N 39°12' W 075°17'512.0
2017-Apr-21 07:30N 39°16' W 075°21'612.4
2017-Apr-21 07:00N 39°21' W 075°26'713.2
2017-Apr-21 06:30N 39°26' W 075°32'612.9
2017-Apr-21 06:01N 39°32' W 075°33'713.5
2017-Apr-21 05:31N 39°39' W 075°34'714.5
2017-Apr-21 05:00N 39°45' W 075°29'713.4
2017-Apr-21 04:30N 39°50' W 075°23'611.1
2017-Apr-21 04:00N 39°51' W 075°16'4 8.9
2017-Apr-21 03:31N 39°53' W 075°11'0 0.0
2017-Apr-21 03:00N 39°53' W 075°11'0 0.0
2017-Apr-21 02:30N 39°53' W 075°11'0 0.0
2017-Apr-21 02:01N 39°53' W 075°11'0 0.0
2017-Apr-21 01:30N 39°53' W 075°11'0 0.0
2017-Apr-21 01:00N 39°53' W 075°11'0 0.0
2017-Apr-21 00:30N 39°53' W 075°11'0 0.0
2017-Apr-21 00:00N 39°53' W 075°11'0 0.0
2017-Apr-20 23:31N 39°53' W 075°11'0 0.0
2017-Apr-20 23:00N 39°53' W 075°11'1 2.8
2017-Apr-20 22:31N 39°53' W 075°12'1 1.6
2017-Apr-20 22:00N 39°52' W 075°13'2 3.1
2017-Apr-20 21:30N 39°53' W 075°11'1 1.3
2017-Apr-20 21:01N 39°53' W 075°11'  

Dump ship's entire track history